Time;durP1;ratioP1;P1;durP2;ratioP2;P2;SDS_P1;SDS_P2;PMS_P1;PMS_P2;Temp;Humidity;BMP_temperature;BMP_pressure;BME280_temperature;BME280_humidity;BME280_pressure;Samples;Min_cycle;Max_cycle;Signal;HPM_P1;HPM_P2
2023/10/03 00:01:04;;;;;;;42.78;18.50;;;18.30;57.50;;;;;;4995960;28;20445;-77
2023/10/03 00:03:30;;;;;;;46.10;19.10;;;18.30;57.40;;;;;;4996223;28;20414;-77
2023/10/03 00:05:56;;;;;;;41.60;18.57;;;18.30;57.00;;;;;;4998695;28;20470;-76
2023/10/03 00:08:22;;;;;;;43.83;19.42;;;18.30;57.00;;;;;;5001266;28;20445;-77
2023/10/03 00:10:48;;;;;;;42.58;18.60;;;18.30;56.50;;;;;;5003440;28;20421;-77
2023/10/03 00:13:15;;;;;;;42.40;18.98;;;18.40;56.20;;;;;;5002466;28;20383;-77
2023/10/03 00:15:44;;;;;;;41.97;17.40;;;18.40;56.10;;;;;;4998842;28;20387;-77
2023/10/03 00:18:11;;;;;;;43.05;18.92;;;18.40;55.90;;;;;;5000518;28;20394;-77
2023/10/03 00:20:37;;;;;;;43.03;19.13;;;18.40;55.70;;;;;;4998453;28;20425;-76
2023/10/03 00:23:04;;;;;;;40.00;17.60;;;18.40;55.30;;;;;;4995304;28;20423;-77
2023/10/03 00:25:30;;;;;;;41.00;18.35;;;18.50;54.80;;;;;;4996833;28;20390;-78
2023/10/03 00:28:00;;;;;;;42.20;18.75;;;18.50;54.50;;;;;;4998554;28;20397;-77
2023/10/03 00:30:28;;;;;;;49.20;19.10;;;18.50;54.70;;;;;;4998377;28;20391;-78
2023/10/03 00:32:58;;;;;;;43.38;18.40;;;18.60;54.50;;;;;;4997636;28;20386;-77
2023/10/03 00:35:25;;;;;;;43.45;18.92;;;18.60;54.00;;;;;;4998024;28;20417;-77
2023/10/03 00:37:51;;;;;;;46.45;19.88;;;18.50;54.70;;;;;;4997203;28;20390;-78
2023/10/03 00:42:49;;;;;;;43.63;18.63;;;18.60;53.90;;;;;;4995878;28;20862;-77
2023/10/03 00:45:21;;;;;;;44.43;18.60;;;18.60;54.00;;;;;;4995280;28;20453;-77
2023/10/03 00:47:48;;;;;;;42.88;18.42;;;18.60;53.70;;;;;;4996414;28;20460;-76
2023/10/03 00:50:16;;;;;;;38.10;17.88;;;18.70;53.70;;;;;;4994826;28;20388;-76
2023/10/03 00:52:45;;;;;;;39.13;18.95;;;18.60;54.00;;;;;;4995541;28;20410;-76
2023/10/03 00:55:11;;;;;;;43.80;18.67;;;18.60;53.70;;;;;;4998101;28;20398;-77
2023/10/03 00:57:37;;;;;;;43.43;18.40;;;18.60;53.50;;;;;;4998577;28;20390;-77
2023/10/03 01:00:15;;;;;;;49.97;20.47;;;18.70;53.60;;;;;;4998396;28;20893;-78
2023/10/03 01:02:51;;;;;;;43.40;19.23;;;18.60;53.70;;;;;;4998827;28;20407;-78
2023/10/03 01:05:16;;;;;;;42.83;18.88;;;18.70;52.80;;;;;;4997718;28;20417;-77
2023/10/03 01:07:49;;;;;;;43.63;18.92;;;18.80;52.50;;;;;;4997911;28;20386;-77
2023/10/03 01:10:20;;;;;;;42.03;18.67;;;18.70;52.70;;;;;;4995221;28;20401;-78
2023/10/03 01:12:47;;;;;;;44.10;19.00;;;18.80;52.40;;;;;;4998689;28;20383;-77
2023/10/03 01:15:16;;;;;;;41.27;18.40;;;18.80;51.90;;;;;;5005010;28;20462;-77
2023/10/03 01:17:57;;;;;;;41.83;18.00;;;18.80;52.00;;;;;;5006994;28;20394;-77
2023/10/03 01:20:29;;;;;;;43.53;18.45;;;18.80;52.10;;;;;;5005907;28;20521;-77
2023/10/03 01:22:56;;;;;;;44.95;19.13;;;18.90;51.70;;;;;;5011514;28;20394;-76
2023/10/03 01:25:27;;;;;;;40.70;17.40;;;18.80;52.10;;;;;;5010073;28;20387;-77
2023/10/03 01:27:54;;;;;;;42.53;18.52;;;18.80;52.30;;;;;;5006192;28;20482;-77
2023/10/03 01:30:20;;;;;;;42.55;18.98;;;18.80;52.20;;;;;;4994878;28;20481;-77
2023/10/03 01:32:52;;;;;;;47.90;19.10;;;18.90;51.60;;;;;;4993566;28;20433;-77
2023/10/03 01:35:17;;;;;;;41.40;17.15;;;18.90;51.70;;;;;;4992665;28;20401;-77
2023/10/03 01:37:45;;;;;;;43.05;18.33;;;18.90;52.10;;;;;;4992165;28;20391;-77
2023/10/03 01:40:13;;;;;;;43.27;19.50;;;18.90;51.30;;;;;;4992970;28;20402;-76
2023/10/03 01:42:46;;;;;;;41.35;19.08;;;18.90;51.00;;;;;;4991944;28;20432;-76
2023/10/03 01:45:23;;;;;;;40.70;18.02;;;19.00;50.60;;;;;;4992976;28;20421;-77
2023/10/03 01:47:52;;;;;;;39.17;18.23;;;19.10;50.30;;;;;;5008274;28;20424;-76
2023/10/03 01:50:21;;;;;;;41.13;18.13;;;19.00;50.70;;;;;;5001518;28;20897;-77
2023/10/03 01:52:49;;;;;;;40.05;18.40;;;19.00;50.40;;;;;;4984676;28;20391;-75
2023/10/03 01:55:17;;;;;;;41.83;18.53;;;19.10;50.60;;;;;;4993147;28;20496;-75
2023/10/03 01:57:43;;;;;;;40.35;17.77;;;19.00;50.60;;;;;;4993391;28;20426;-76
2023/10/03 02:00:35;;;;;;;39.08;17.70;;;19.10;50.00;;;;;;4994962;28;20394;-77
2023/10/03 02:03:05;;;;;;;45.07;19.17;;;19.10;49.90;;;;;;4993591;28;20523;-77
2023/10/03 02:05:38;;;;;;;40.93;17.67;;;19.10;50.00;;;;;;4993830;28;20386;-77
2023/10/03 02:08:18;;;;;;;41.50;17.88;;;19.20;49.60;;;;;;4993015;28;20406;-77
2023/10/03 02:10:49;;;;;;;41.58;18.80;;;19.20;49.00;;;;;;4992717;28;20903;-75
2023/10/03 02:13:17;;;;;;;46.75;19.92;;;19.20;49.40;;;;;;4992452;28;20477;-77
2023/10/03 02:15:49;;;;;;;41.60;18.65;;;19.20;48.60;;;;;;4993242;28;20900;-77
2023/10/03 02:18:19;;;;;;;42.50;18.92;;;19.20;48.60;;;;;;4992534;28;20402;-76
2023/10/03 02:20:53;;;;;;;37.17;17.55;;;19.20;48.80;;;;;;4993282;28;20477;-77
2023/10/03 02:23:23;;;;;;;39.85;17.85;;;19.20;48.70;;;;;;4993994;28;20766;-77
2023/10/03 02:25:53;;;;;;;47.40;18.88;;;19.20;48.90;;;;;;4994562;28;20393;-77
2023/10/03 02:28:20;;;;;;;40.15;18.13;;;19.20;48.60;;;;;;4994022;28;20398;-76
2023/10/03 02:30:50;;;;;;;46.00;19.00;;;19.30;48.40;;;;;;4994359;28;20813;-76
2023/10/03 02:33:17;;;;;;;42.53;18.17;;;19.20;48.60;;;;;;4995111;28;20386;-76
2023/10/03 02:35:47;;;;;;;44.30;17.92;;;19.10;49.10;;;;;;4993119;28;20836;-76
2023/10/03 02:38:17;;;;;;;42.05;18.15;;;19.20;48.40;;;;;;4993699;28;20848;-76
2023/10/03 02:40:43;;;;;;;40.10;17.85;;;19.30;48.10;;;;;;4992415;28;20880;-76
2023/10/03 02:43:10;;;;;;;37.80;18.00;;;19.30;48.30;;;;;;4994175;28;20386;-77
2023/10/03 02:45:37;;;;;;;45.00;18.50;;;19.30;48.00;;;;;;4994265;28;20468;-76
2023/10/03 02:48:13;;;;;;;41.95;18.63;;;19.30;48.10;;;;;;4993988;28;20470;-76
2023/10/03 02:50:39;;;;;;;44.90;18.47;;;19.30;48.10;;;;;;4991628;28;20383;-75
2023/10/03 02:53:05;;;;;;;39.23;17.57;;;19.30;47.80;;;;;;4991973;28;20398;-76
2023/10/03 02:55:31;;;;;;;37.65;17.27;;;19.30;47.80;;;;;;4992946;28;20453;-77
2023/10/03 02:57:56;;;;;;;45.60;18.07;;;19.30;47.60;;;;;;4991716;28;20398;-77
2023/10/03 03:00:22;;;;;;;42.50;17.97;;;19.30;47.60;;;;;;4992451;28;20425;-76
2023/10/03 03:02:48;;;;;;;36.08;16.63;;;19.30;48.10;;;;;;4993311;28;20390;-77
2023/10/03 03:05:15;;;;;;;39.70;17.17;;;19.40;47.10;;;;;;4994257;28;20501;-77
2023/10/03 03:07:46;;;;;;;40.10;17.80;;;19.40;46.80;;;;;;4994093;28;20943;-77
2023/10/03 03:10:17;;;;;;;38.40;17.27;;;19.40;47.30;;;;;;4992198;28;20390;-77
2023/10/03 03:12:43;;;;;;;40.30;17.95;;;19.40;47.40;;;;;;4991373;28;20821;-76
2023/10/03 03:15:27;;;;;;;40.75;18.50;;;19.40;47.20;;;;;;4991410;28;20533;-76
2023/10/03 03:17:53;;;;;;;39.55;17.52;;;19.40;46.90;;;;;;4991333;28;20472;-77
2023/10/03 03:20:36;;;;;;;37.72;17.70;;;19.40;46.70;;;;;;4991338;28;20386;-76
2023/10/03 03:23:02;;;;;;;41.35;17.75;;;19.50;46.50;;;;;;4991348;28;20425;-75
2023/10/03 03:25:37;;;;;;;40.30;17.43;;;19.50;46.50;;;;;;4991734;28;20395;-76
2023/10/03 03:28:13;;;;;;;40.40;18.45;;;19.40;47.00;;;;;;4990342;28;20394;-77
2023/10/03 03:30:46;;;;;;;39.40;16.97;;;19.40;47.10;;;;;;4991434;28;20429;-76
2023/10/03 03:33:19;;;;;;;35.42;16.33;;;19.40;47.40;;;;;;4990625;28;20449;-77
2023/10/03 03:35:47;;;;;;;41.50;17.20;;;19.40;47.20;;;;;;4998940;28;20710;-77
2023/10/03 03:38:20;;;;;;;40.72;17.50;;;19.30;47.90;;;;;;4992925;28;20428;-76
2023/10/03 03:40:47;;;;;;;40.22;18.50;;;19.40;47.50;;;;;;4992611;28;20822;-77
2023/10/03 03:43:16;;;;;;;43.65;17.88;;;19.30;47.80;;;;;;4991538;28;20774;-76
2023/10/03 03:45:43;;;;;;;41.20;18.60;;;19.30;47.60;;;;;;4991450;28;20387;-76
2023/10/03 03:48:09;;;;;;;42.53;18.63;;;19.30;47.80;;;;;;4990278;28;20398;-77
2023/10/03 03:50:35;;;;;;;46.25;17.95;;;19.30;48.10;;;;;;4990720;28;20438;-75
2023/10/03 03:53:02;;;;;;;42.25;18.45;;;19.30;48.20;;;;;;4991012;28;20404;-76
2023/10/03 03:55:31;;;;;;;42.30;18.15;;;19.30;47.80;;;;;;4990885;28;20472;-76
2023/10/03 03:58:05;;;;;;;40.17;17.20;;;19.30;48.00;;;;;;4990846;28;20398;-76
2023/10/03 04:00:32;;;;;;;36.23;17.30;;;19.30;48.60;;;;;;4990899;28;20387;-76
2023/10/03 04:02:59;;;;;;;39.88;17.83;;;19.30;48.60;;;;;;4991427;28;20393;-76
2023/10/03 04:05:25;;;;;;;37.13;16.95;;;19.10;49.70;;;;;;4991536;28;20862;-76
2023/10/03 04:07:51;;;;;;;36.88;17.00;;;19.10;50.30;;;;;;4989578;28;20395;-77
2023/10/03 04:10:17;;;;;;;44.47;17.90;;;19.00;50.60;;;;;;4991067;28;20469;-77
2023/10/03 04:12:43;;;;;;;41.40;17.70;;;19.00;50.90;;;;;;4992384;28;20469;-77
2023/10/03 04:15:11;;;;;;;42.25;17.40;;;19.00;51.30;;;;;;4994339;28;20406;-76
2023/10/03 04:17:37;;;;;;;38.17;17.20;;;19.00;51.20;;;;;;4994526;28;20464;-77
2023/10/03 04:20:19;;;;;;;38.83;17.50;;;18.90;51.40;;;;;;4995227;28;20398;-77
2023/10/03 04:22:48;;;;;;;40.90;17.55;;;18.80;52.50;;;;;;4994750;28;20383;-76
2023/10/03 04:25:14;;;;;;;39.90;18.38;;;18.90;52.90;;;;;;4993974;28;20889;-76
2023/10/03 04:27:40;;;;;;;40.28;18.00;;;18.90;52.20;;;;;;4994005;28;20781;-76
2023/10/03 04:30:09;;;;;;;42.78;18.13;;;19.00;51.50;;;;;;4994160;28;20390;-77
2023/10/03 04:32:35;;;;;;;39.97;17.80;;;18.90;51.90;;;;;;4992831;28;20414;-76
2023/10/03 04:35:01;;;;;;;33.83;16.53;;;18.80;52.60;;;;;;4994617;28;20437;-77
2023/10/03 04:37:26;;;;;;;39.07;16.20;;;18.90;52.20;;;;;;4994178;28;20409;-76
2023/10/03 04:39:52;;;;;;;35.13;16.57;;;18.90;51.30;;;;;;4994110;28;20513;-76
2023/10/03 04:42:17;;;;;;;38.33;16.55;;;18.90;51.60;;;;;;4995220;28;20805;-77
2023/10/03 04:44:43;;;;;;;36.40;16.60;;;19.00;51.20;;;;;;4997166;28;20916;-76
2023/10/03 04:47:12;;;;;;;34.30;15.63;;;19.10;50.40;;;;;;4995628;28;20422;-76
2023/10/03 04:49:38;;;;;;;32.15;15.20;;;19.10;50.90;;;;;;4995536;28;20378;-76
2023/10/03 04:52:07;;;;;;;37.10;16.27;;;19.10;50.30;;;;;;4995127;28;20382;-76
2023/10/03 04:54:33;;;;;;;33.67;16.10;;;19.00;50.20;;;;;;4998831;28;20402;-77
2023/10/03 04:56:59;;;;;;;36.90;15.20;;;19.00;50.50;;;;;;4997946;28;20429;-76
2023/10/03 04:59:25;;;;;;;33.43;15.00;;;19.00;51.30;;;;;;4999166;28;20832;-76
2023/10/03 05:01:50;;;;;;;37.17;15.35;;;19.10;50.30;;;;;;4998642;28;20774;-76
2023/10/03 05:04:16;;;;;;;35.42;14.85;;;19.20;49.50;;;;;;4999827;28;20407;-75
2023/10/03 05:06:43;;;;;;;30.83;13.57;;;19.40;48.60;;;;;;4998454;28;20402;-77
2023/10/03 05:09:09;;;;;;;28.67;13.40;;;19.60;47.90;;;;;;4995964;28;20395;-75
2023/10/03 05:11:34;;;;;;;29.13;13.17;;;19.70;47.40;;;;;;4995679;28;20394;-75
2023/10/03 05:14:00;;;;;;;33.85;13.90;;;19.80;46.50;;;;;;4995652;28;20471;-75
2023/10/03 05:16:26;;;;;;;32.85;13.50;;;19.90;46.10;;;;;;4997465;28;20477;-73
2023/10/03 05:18:52;;;;;;;33.13;12.05;;;20.10;45.40;;;;;;4999687;28;20414;-76
2023/10/03 05:21:17;;;;;;;31.23;12.02;;;20.20;44.90;;;;;;4998280;28;20414;-76
2023/10/03 05:23:43;;;;;;;31.70;12.03;;;20.30;44.40;;;;;;4997970;28;20410;-76
2023/10/03 05:26:09;;;;;;;27.17;12.27;;;20.40;44.20;;;;;;5002518;28;20386;-76
2023/10/03 05:28:38;;;;;;;29.15;12.70;;;20.30;44.60;;;;;;5013920;28;20445;-74
2023/10/03 05:31:04;;;;;;;26.63;11.80;;;20.30;44.40;;;;;;5012431;28;20793;-75
2023/10/03 05:33:30;;;;;;;28.63;11.97;;;20.30;44.80;;;;;;5010427;28;20430;-75
2023/10/03 05:35:56;;;;;;;26.95;11.95;;;20.40;44.90;;;;;;5007691;28;20391;-74
2023/10/03 05:38:23;;;;;;;28.70;11.80;;;20.30;45.00;;;;;;5007731;28;20397;-75
2023/10/03 05:40:48;;;;;;;26.60;12.07;;;20.40;44.60;;;;;;5005107;28;20391;-76
2023/10/03 05:43:14;;;;;;;27.67;12.20;;;20.40;44.10;;;;;;4995652;28;20390;-77
2023/10/03 05:45:39;;;;;;;32.33;12.80;;;20.60;44.00;;;;;;4992728;28;20469;-77
2023/10/03 05:48:05;;;;;;;40.38;12.35;;;20.60;44.20;;;;;;4992991;28;20390;-76
2023/10/03 05:50:32;;;;;;;29.20;12.27;;;20.60;44.10;;;;;;4992584;28;20485;-75
2023/10/03 05:52:59;;;;;;;31.02;12.38;;;20.60;44.20;;;;;;4991820;28;20402;-76
2023/10/03 05:55:25;;;;;;;26.67;11.82;;;20.60;44.40;;;;;;4992548;28;20398;-75
2023/10/03 05:57:51;;;;;;;33.90;11.73;;;20.70;44.30;;;;;;4991035;28;20391;-76
2023/10/03 06:00:17;;;;;;;24.57;11.27;;;20.70;44.40;;;;;;4991949;28;20505;-77
2023/10/03 06:02:47;;;;;;;24.35;10.95;;;20.70;44.50;;;;;;4993004;28;20386;-77
2023/10/03 06:05:14;;;;;;;25.00;11.00;;;20.80;44.00;;;;;;4992731;28;20402;-75
2023/10/03 06:07:41;;;;;;;23.55;10.80;;;20.70;44.60;;;;;;4992338;28;20973;-75
2023/10/03 06:10:10;;;;;;;28.90;11.60;;;20.80;44.90;;;;;;4991935;28;20401;-75
2023/10/03 06:12:36;;;;;;;23.33;10.80;;;20.70;45.00;;;;;;4991868;28;20382;-76
2023/10/03 06:15:04;;;;;;;25.35;11.20;;;20.80;45.30;;;;;;4993373;28;20417;-76
2023/10/03 06:17:31;;;;;;;23.47;10.60;;;20.80;44.90;;;;;;4992641;28;20409;-75
2023/10/03 06:19:57;;;;;;;20.48;10.20;;;20.90;45.00;;;;;;4994955;28;20390;-75
2023/10/03 06:22:22;;;;;;;24.57;11.10;;;20.90;44.80;;;;;;4994406;28;20757;-75
2023/10/03 06:24:49;;;;;;;27.13;11.00;;;20.90;44.60;;;;;;4994637;28;20418;-77
2023/10/03 06:27:14;;;;;;;22.90;10.02;;;20.90;45.00;;;;;;4994471;28;20456;-77
2023/10/03 06:29:41;;;;;;;22.40;10.40;;;20.90;45.10;;;;;;4994646;28;20865;-76
2023/10/03 06:32:06;;;;;;;24.40;10.90;;;20.90;44.90;;;;;;4994492;28;20398;-75
2023/10/03 06:34:33;;;;;;;27.20;10.70;;;20.90;45.00;;;;;;4993686;28;20448;-77
2023/10/03 06:36:59;;;;;;;24.90;10.88;;;20.90;45.30;;;;;;4993735;28;20445;-78
2023/10/03 06:39:24;;;;;;;22.23;10.82;;;20.90;45.10;;;;;;4992837;28;20398;-76
2023/10/03 06:41:55;;;;;;;21.67;10.27;;;20.90;45.50;;;;;;4990986;28;20898;-77
2023/10/03 06:44:21;;;;;;;19.85;10.35;;;20.90;45.70;;;;;;4992785;28;20411;-78
2023/10/03 06:46:47;;;;;;;26.15;11.00;;;20.90;45.80;;;;;;4992338;28;20754;-75
2023/10/03 06:49:14;;;;;;;22.00;10.80;;;20.90;45.80;;;;;;4990102;28;20391;-77
2023/10/03 06:51:39;;;;;;;21.38;9.80;;;20.90;45.80;;;;;;4991451;28;20773;-75
2023/10/03 06:54:05;;;;;;;21.70;10.23;;;20.90;45.70;;;;;;4991609;28;20468;-76
2023/10/03 06:56:32;;;;;;;25.23;10.40;;;20.80;45.70;;;;;;4991760;28;20764;-76
2023/10/03 06:58:59;;;;;;;20.60;9.50;;;20.80;45.80;;;;;;4991658;28;20395;-77
2023/10/03 07:01:25;;;;;;;19.30;8.98;;;20.80;45.40;;;;;;4991009;28;20398;-76
2023/10/03 07:03:53;;;;;;;18.60;8.50;;;20.80;45.70;;;;;;4991398;28;20746;-76
2023/10/03 07:06:19;;;;;;;19.83;8.93;;;20.70;45.40;;;;;;4991856;28;20558;-78
2023/10/03 07:08:45;;;;;;;17.77;8.60;;;20.70;45.80;;;;;;4991667;28;20447;-77
2023/10/03 07:11:12;;;;;;;16.88;8.50;;;20.60;45.70;;;;;;4990841;28;20445;-76
2023/10/03 07:13:38;;;;;;;17.52;8.02;;;20.60;45.50;;;;;;4991091;28;20789;-74
2023/10/03 07:16:03;;;;;;;18.38;8.25;;;20.60;45.50;;;;;;4990688;28;20393;-76
2023/10/03 07:18:29;;;;;;;16.47;8.23;;;20.60;45.50;;;;;;4990930;28;20386;-76
2023/10/03 07:20:55;;;;;;;18.55;8.48;;;20.50;46.10;;;;;;4991284;28;20388;-77
2023/10/03 07:23:21;;;;;;;16.35;7.80;;;20.60;46.00;;;;;;4991660;28;20403;-76
2023/10/03 07:25:48;;;;;;;24.92;9.13;;;20.50;46.10;;;;;;4991519;28;20457;-76
2023/10/03 07:28:14;;;;;;;19.85;8.82;;;20.50;46.70;;;;;;4993019;28;20786;-77
2023/10/03 07:30:41;;;;;;;18.70;8.70;;;20.60;46.80;;;;;;4992244;28;20752;-76
2023/10/03 07:33:08;;;;;;;21.00;9.33;;;20.70;47.20;;;;;;4991052;28;20413;-77
2023/10/03 07:35:37;;;;;;;15.15;8.23;;;20.80;46.60;;;;;;4989749;28;20490;-77
2023/10/03 07:38:03;;;;;;;17.45;8.70;;;21.00;46.20;;;;;;4991119;28;20382;-78
2023/10/03 07:40:28;;;;;;;17.90;8.40;;;21.00;45.70;;;;;;4992077;28;20386;-78
2023/10/03 07:42:54;;;;;;;14.73;7.40;;;20.90;45.70;;;;;;4992743;28;20413;-76
2023/10/03 07:45:19;;;;;;;17.47;8.00;;;21.00;44.20;;;;;;4992284;28;20464;-77
2023/10/03 07:47:46;;;;;;;16.80;7.80;;;21.10;44.20;;;;;;4994585;28;20398;-76
2023/10/03 07:50:13;;;;;;;20.30;8.60;;;21.10;43.40;;;;;;4997213;28;20387;-77
2023/10/03 07:52:39;;;;;;;15.90;7.50;;;21.20;43.40;;;;;;4995800;28;20466;-78
2023/10/03 07:55:05;;;;;;;17.20;7.70;;;21.20;42.80;;;;;;4995840;28;20749;-76
2023/10/03 07:57:31;;;;;;;14.30;7.00;;;21.10;43.10;;;;;;4994847;28;20394;-77
2023/10/03 07:59:57;;;;;;;16.00;7.40;;;21.10;43.60;;;;;;4994526;28;20485;-76
2023/10/03 08:02:26;;;;;;;14.47;6.40;;;21.10;42.30;;;;;;4994318;28;20900;-77
2023/10/03 08:04:52;;;;;;;13.13;6.20;;;21.00;42.50;;;;;;4993778;28;20410;-77
2023/10/03 08:07:24;;;;;;;12.23;6.35;;;20.90;42.90;;;;;;4993961;28;20389;-75
2023/10/03 08:09:49;;;;;;;15.07;7.30;;;21.00;42.40;;;;;;4994335;28;20391;-76
2023/10/03 08:12:23;;;;;;;10.05;6.32;;;21.10;42.50;;;;;;4992552;28;20429;-75
2023/10/03 08:14:52;;;;;;;14.32;7.18;;;21.30;41.60;;;;;;4994446;28;20754;-75
2023/10/03 08:17:26;;;;;;;15.23;6.57;;;21.30;40.30;;;;;;4982497;28;20763;-79
2023/10/03 08:19:52;;;;;;;15.07;6.30;;;21.40;39.90;;;;;;4974955;28;20392;-77
2023/10/03 08:22:20;;;;;;;10.85;6.60;;;21.40;39.80;;;;;;4982420;28;20406;-76
2023/10/03 08:24:46;;;;;;;12.48;6.65;;;21.40;40.20;;;;;;4994918;28;20413;-76
2023/10/03 08:27:18;;;;;;;12.88;6.80;;;21.30;40.20;;;;;;4994809;28;20402;-77
2023/10/03 08:29:57;;;;;;;13.20;6.60;;;21.30;40.50;;;;;;4997090;28;20383;-77
2023/10/03 08:32:27;;;;;;;15.45;6.10;;;21.30;40.30;;;;;;5000832;28;20382;-76
2023/10/03 08:34:52;;;;;;;11.50;6.38;;;21.30;40.30;;;;;;4998943;28;20406;-77
2023/10/03 08:37:24;;;;;;;16.25;6.85;;;21.40;40.10;;;;;;4994826;28;20521;-78
2023/10/03 08:39:53;;;;;;;12.23;6.03;;;21.30;40.90;;;;;;4994727;28;20414;-76
2023/10/03 08:42:34;;;;;;;11.03;6.30;;;21.20;40.80;;;;;;4993288;28;20388;-77
2023/10/03 08:45:22;;;;;;;14.50;6.40;;;21.10;41.40;;;;;;4993375;28;20410;-76
2023/10/03 08:47:50;;;;;;;10.93;6.17;;;21.00;42.00;;;;;;5002881;28;20395;-76
2023/10/03 08:50:29;;;;;;;15.27;6.15;;;20.90;42.80;;;;;;5005942;28;20878;-75
2023/10/03 08:52:56;;;;;;;13.80;5.78;;;20.80;43.50;;;;;;5001803;28;20422;-77
2023/10/03 08:55:26;;;;;;;13.80;6.33;;;20.90;43.80;;;;;;4997856;28;20390;-74
2023/10/03 08:57:52;;;;;;;13.55;6.38;;;20.90;43.00;;;;;;5011155;28;20403;-75
2023/10/03 09:00:25;;;;;;;13.32;6.50;;;21.00;41.80;;;;;;5009036;28;20395;-74
2023/10/03 09:03:09;;;;;;;12.60;5.85;;;21.10;41.90;;;;;;4993315;28;20399;-75
2023/10/03 09:05:39;;;;;;;12.52;6.03;;;21.10;41.60;;;;;;4994081;28;20452;-76
2023/10/03 09:08:09;;;;;;;13.67;6.10;;;21.20;41.70;;;;;;4994297;28;20463;-76
2023/10/03 09:10:50;;;;;;;20.43;6.30;;;21.20;41.60;;;;;;4994664;28;20417;-75
2023/10/03 09:13:23;;;;;;;9.00;5.40;;;21.20;41.40;;;;;;4993442;28;20390;-76
2023/10/03 09:15:50;;;;;;;11.20;5.70;;;21.20;41.90;;;;;;4993218;28;20394;-76
2023/10/03 09:18:21;;;;;;;12.88;6.55;;;21.30;41.20;;;;;;4993274;28;20585;-76
2023/10/03 09:20:49;;;;;;;15.47;5.83;;;21.30;40.90;;;;;;4993183;28;20386;-76
2023/10/03 09:23:17;;;;;;;11.25;5.80;;;21.20;41.60;;;;;;4993173;28;20379;-76
2023/10/03 09:25:48;;;;;;;11.32;5.93;;;21.30;41.30;;;;;;4994916;28;20390;-76
2023/10/03 09:28:16;;;;;;;10.67;5.57;;;21.30;41.40;;;;;;4994626;28;20422;-76
2023/10/03 09:30:42;;;;;;;10.20;5.20;;;21.50;40.50;;;;;;4998560;28;20394;-77
2023/10/03 09:33:09;;;;;;;24.88;7.15;;;21.60;39.70;;;;;;4998221;28;20387;-77
2023/10/03 09:35:39;;;;;;;8.90;5.20;;;21.80;39.60;;;;;;4997101;28;20401;-76
2023/10/03 09:38:09;;;;;;;12.60;5.95;;;21.80;39.30;;;;;;4996767;28;20811;-76
2023/10/03 09:40:51;;;;;;;9.68;5.53;;;21.80;39.20;;;;;;4997767;28;20394;-77
2023/10/03 09:43:27;;;;;;;10.25;5.53;;;21.70;39.50;;;;;;5010898;28;20396;-77
2023/10/03 09:45:56;;;;;;;9.40;5.30;;;21.60;39.80;;;;;;5016817;28;21029;-75
2023/10/03 09:48:25;;;;;;;11.50;5.43;;;21.70;39.30;;;;;;4998180;28;20819;-76
2023/10/03 09:50:55;;;;;;;6.82;4.93;;;21.70;39.30;;;;;;4993708;28;20920;-76
2023/10/03 09:53:28;;;;;;;12.48;5.20;;;21.70;39.40;;;;;;4995938;28;20500;-77
2023/10/03 09:55:56;;;;;;;16.65;5.65;;;21.70;39.80;;;;;;4994824;28;20397;-77
2023/10/03 09:58:25;;;;;;;12.65;5.78;;;21.80;39.20;;;;;;4992663;28;20838;-75
2023/10/03 10:00:55;;;;;;;11.45;5.50;;;21.80;39.30;;;;;;4991057;28;20390;-76
2023/10/03 10:03:46;;;;;;;9.88;5.57;;;21.60;39.70;;;;;;4995743;28;20390;-77
2023/10/03 10:06:47;;;;;;;10.50;5.15;;;21.60;39.80;;;;;;5000286;28;20383;-77
2023/10/03 10:09:27;;;;;;;10.50;5.30;;;21.60;40.20;;;;;;4967103;28;20408;-76
2023/10/03 10:12:19;;;;;;;10.60;5.53;;;21.60;40.50;;;;;;4983379;28;20398;-76
2023/10/03 10:17:54;;;;;;;14.75;5.80;;;21.60;40.10;;;;;;4992419;28;20678;-77
2023/10/03 10:20:29;;;;;;;12.05;5.82;;;21.50;40.40;;;;;;4994618;28;20453;-77
2023/10/03 10:22:59;;;;;;;8.85;5.35;;;21.40;41.00;;;;;;4992943;28;20831;-76
2023/10/03 10:25:30;;;;;;;14.60;5.82;;;21.20;41.50;;;;;;4992214;28;20410;-76
2023/10/03 10:28:07;;;;;;;12.90;5.75;;;21.10;42.60;;;;;;4991833;28;20417;-75
2023/10/03 10:30:38;;;;;;;9.00;5.80;;;20.90;45.30;;;;;;4991720;28;20406;-76
2023/10/03 10:33:18;;;;;;;10.97;5.70;;;20.50;50.30;;;;;;4994877;28;20894;-77
2023/10/03 10:35:50;;;;;;;12.05;7.45;;;20.20;54.90;;;;;;4995360;28;20418;-76
2023/10/03 10:38:18;;;;;;;14.18;7.45;;;19.70;58.00;;;;;;4992009;28;20545;-76
2023/10/03 10:41:22;;;;;;;15.68;8.00;;;19.30;60.90;;;;;;4993934;28;20596;-75
2023/10/03 10:44:13;;;;;;;16.70;10.40;;;19.00;71.50;;;;;;4995778;28;20549;-77
2023/10/03 10:46:44;;;;;;;25.92;15.55;;;18.60;79.80;;;;;;4995614;28;20437;-76
2023/10/03 10:49:33;;;;;;;19.27;11.38;;;18.30;87.30;;;;;;4993423;28;20425;-76
2023/10/03 10:52:06;;;;;;;22.23;11.55;;;18.20;84.90;;;;;;4992000;28;20489;-76
2023/10/03 10:54:33;;;;;;;19.33;12.10;;;18.20;86.90;;;;;;4989743;28;20416;-75
2023/10/03 10:57:03;;;;;;;15.57;10.95;;;18.20;88.10;;;;;;4989676;28;20399;-74
2023/10/03 10:59:31;;;;;;;19.67;10.77;;;18.30;86.70;;;;;;4990875;28;20437;-76
2023/10/03 11:02:00;;;;;;;16.23;10.20;;;18.40;85.00;;;;;;4988960;28;20762;-75
2023/10/03 11:04:27;;;;;;;14.75;9.20;;;18.50;82.70;;;;;;4991163;28;20418;-77
2023/10/03 11:06:53;;;;;;;14.70;9.32;;;18.70;76.70;;;;;;4990461;28;20382;-76
2023/10/03 11:09:23;;;;;;;14.00;7.90;;;18.80;73.80;;;;;;4991449;28;20390;-76
2023/10/03 11:11:52;;;;;;;12.35;7.25;;;19.10;68.70;;;;;;4990665;28;20747;-76
2023/10/03 11:14:31;;;;;;;14.18;6.20;;;19.40;69.20;;;;;;4991588;28;20398;-76
2023/10/03 11:16:58;;;;;;;8.63;5.05;;;19.50;66.70;;;;;;4992911;28;20489;-77
2023/10/03 11:19:25;;;;;;;10.05;4.20;;;19.40;62.80;;;;;;4998400;28;20390;-75
2023/10/03 11:21:51;;;;;;;5.95;3.10;;;19.40;60.60;;;;;;4996085;28;20586;-76
2023/10/03 11:24:19;;;;;;;4.57;2.83;;;19.60;57.20;;;;;;4999940;28;20414;-77
2023/10/03 11:26:49;;;;;;;6.32;3.00;;;19.70;54.30;;;;;;4998583;28;20394;-78
2023/10/03 11:29:33;;;;;;;3.97;2.50;;;20.10;52.80;;;;;;4996675;28;20409;-76
2023/10/03 11:32:01;;;;;;;8.68;2.58;;;20.10;51.40;;;;;;4997266;28;20403;-77
2023/10/03 11:34:31;;;;;;;4.03;2.53;;;20.10;52.30;;;;;;4998663;28;20398;-77
2023/10/03 11:36:58;;;;;;;7.72;3.00;;;19.60;52.90;;;;;;5002039;28;20458;-76
2023/10/03 11:39:23;;;;;;;8.25;3.00;;;19.40;55.90;;;;;;5000218;28;20398;-77
2023/10/03 11:41:49;;;;;;;8.57;2.50;;;19.10;55.10;;;;;;4999954;28;20489;-76
2023/10/03 11:44:22;;;;;;;3.60;2.40;;;19.00;55.40;;;;;;5001952;28;20413;-75
2023/10/03 11:46:49;;;;;;;6.80;2.80;;;19.00;58.10;;;;;;4999370;28;20410;-77
2023/10/03 11:49:15;;;;;;;6.75;2.20;;;19.10;55.10;;;;;;4998646;28;20390;-78
2023/10/03 11:51:43;;;;;;;4.25;1.70;;;19.00;53.00;;;;;;4998084;28;20405;-75
2023/10/03 11:54:10;;;;;;;7.20;2.20;;;18.90;53.90;;;;;;4998105;28;20410;-76
2023/10/03 11:56:42;;;;;;;6.65;1.90;;;18.80;51.50;;;;;;5001411;28;20394;-78
2023/10/03 11:59:08;;;;;;;5.07;1.95;;;18.70;53.70;;;;;;4997952;28;20390;-77
2023/10/03 12:01:35;;;;;;;7.93;2.17;;;18.50;53.70;;;;;;5000694;28;20405;-77
2023/10/03 12:04:01;;;;;;;3.40;1.60;;;18.60;54.00;;;;;;5003414;28;20442;-78
2023/10/03 12:06:27;;;;;;;6.83;2.13;;;18.50;52.40;;;;;;5003135;28;20410;-77
2023/10/03 12:08:52;;;;;;;4.07;1.40;;;18.60;53.70;;;;;;5001490;28;20398;-79
2023/10/03 12:11:20;;;;;;;3.50;1.80;;;18.50;52.50;;;;;;5001686;28;20472;-74
2023/10/03 12:13:45;;;;;;;3.30;1.50;;;18.60;53.50;;;;;;5003076;28;20576;-77
2023/10/03 12:16:11;;;;;;;5.10;1.70;;;18.90;52.80;;;;;;5003253;28;20531;-77
2023/10/03 12:18:37;;;;;;;3.83;1.90;;;19.00;50.70;;;;;;5000352;28;20425;-78
2023/10/03 12:21:04;;;;;;;4.85;1.60;;;19.00;49.10;;;;;;4998481;28;20410;-76
2023/10/03 12:23:29;;;;;;;3.47;1.40;;;18.90;49.00;;;;;;5000605;28;20426;-76
2023/10/03 12:25:56;;;;;;;5.50;1.60;;;18.80;48.30;;;;;;4999851;28;20458;-76
2023/10/03 12:28:22;;;;;;;4.90;1.70;;;18.70;49.50;;;;;;5001517;28;20406;-78
2023/10/03 12:30:50;;;;;;;4.30;1.50;;;18.60;51.90;;;;;;4998939;28;20761;-78
2023/10/03 12:33:16;;;;;;;5.25;1.55;;;18.50;50.40;;;;;;5002914;28;20387;-77
2023/10/03 12:35:42;;;;;;;3.42;1.40;;;18.50;50.90;;;;;;5001074;28;20418;-78
2023/10/03 12:38:10;;;;;;;4.80;1.30;;;18.40;49.90;;;;;;5001923;28;20391;-78
2023/10/03 12:40:36;;;;;;;5.30;1.30;;;18.40;51.40;;;;;;4997768;28;20728;-77
2023/10/03 12:43:01;;;;;;;5.80;1.70;;;18.40;52.40;;;;;;4998038;28;20397;-77
2023/10/03 12:45:29;;;;;;;5.33;1.80;;;18.40;53.30;;;;;;5004148;28;20434;-77
2023/10/03 12:47:54;;;;;;;5.07;1.30;;;18.20;55.30;;;;;;5005244;28;20421;-77